Imagination — C6FN2 — position and weather

sailwx.info

Track history (hours):
 
Tides and Currents Weather Stations Pressure Air Temp Water Temp Dewpoint Dewpoint Depression Visibility Wind Speed Wind Dir Waves Ship Positions

Imagination

Operator: Carnival Cruise Lines

Last reported at 2018-Jul-22 07:00 UTC. Time now 2018-Jul-22 07:05 UTC.
Position N 32°44' W 117°48'.

Type: Ship. MMSI: 309933000.

Date/timePositionNaut miles runAvg speedWind from/ knotsBaromVisibWave heightAir tempDewpointWater temp
2018-Jul-22 07:00N 32°44' W 117°48'815.5
2018-Jul-22 06:30N 32°36' W 117°46'815.7
2018-Jul-22 06:00N 32°29' W 117°42'815.5
2018-Jul-22 05:30N 32°22' W 117°37'815.6
2018-Jul-22 05:00N 32°16' W 117°32'8675.7
2018-Jul-22 05:00N 32°12' W 117°24'2 3.5 320 / 121019.310.8 16.012.721.0
2018-Jul-22 04:30N 32°11' W 117°25'815.6
2018-Jul-22 03:59N 32°05' W 117°19'815.1
2018-Jul-22 03:29N 32°00' W 117°12'815.1
2018-Jul-22 02:59N 31°58' W 117°03'715.4
2018-Jul-22 02:30N 31°55' W 116°55'815.4
2018-Jul-22 02:00N 31°52' W 116°47'5 0.4
2018-Jul-21 12:06N 31°52' W 116°53'4 7.5
2018-Jul-21 11:37N 31°51' W 116°57'3 7.4
2018-Jul-21 11:14N 31°50' W 117°00'2 6.8
2018-Jul-21 11:00N 31°50' W 117°02'4 7.0
2018-Jul-21 10:29N 31°49' W 117°06'4 7.0
2018-Jul-21 09:58N 31°48' W 117°10'3 7.0
2018-Jul-21 09:30N 31°47' W 117°14'3 7.0
2018-Jul-21 09:01N 31°46' W 117°18'3808228472.6
2018-Jul-21 09:00S 31°42' W 117°18'38077831.4 310 / 131018.210.8 19.015.920.7
2018-Jul-21 08:30N 31°45' W 117°22'3 6.8
2018-Jul-21 08:01N 31°44' W 117°26'3 6.8
2018-Jul-21 07:31N 31°42' W 117°29'3 6.9
2018-Jul-21 07:00N 31°41' W 117°33'3 6.4
2018-Jul-21 06:31N 31°38' W 117°34'3 6.5
2018-Jul-21 06:00N 31°34' W 117°35'3 6.5
2018-Jul-21 05:30N 31°31' W 117°36'3 5.9
2018-Jul-21 05:01N 31°31' W 117°39'3 6.5
2018-Jul-21 04:30N 31°32' W 117°43'3 6.5
2018-Jul-21 04:01N 31°33' W 117°46'3 6.7
2018-Jul-21 03:31N 31°33' W 117°50'3 6.7
2018-Jul-21 03:01N 31°33' W 117°54'6354.7
2018-Jul-21 03:00N 31°30' W 117°48'917.7 290 / 151018.210.8 16.012.719.0
2018-Jul-21 02:30N 31°32' W 117°58'3 6.4
2018-Jul-21 02:01N 31°32' W 118°02'3 6.6
2018-Jul-21 01:30N 31°32' W 118°05'3 6.4
2018-Jul-21 01:00N 31°32' W 118°09'3 6.7
2018-Jul-21 00:30N 31°32' W 118°13'3 6.6
2018-Jul-21 00:01N 31°35' W 118°15'3 6.6
2018-Jul-20 23:31N 31°38' W 118°14'3 6.6
2018-Jul-20 23:01N 31°41' W 118°13'3 6.7
2018-Jul-20 22:30N 31°44' W 118°13'3 6.2
2018-Jul-20 22:00N 31°45' W 118°09'4 7.1
2018-Jul-20 21:30N 31°43' W 118°05'4 7.1
2018-Jul-20 21:00N 31°42' W 118°02'3 6.7
2018-Jul-20 20:31N 31°41' W 117°58'3 6.6
2018-Jul-20 20:00N 31°42' W 117°54'6423.2
2018-Jul-20 20:00N 31°36' W 117°54'816.3 260 / 61018.2 20.016.920.0
2018-Jul-20 19:31N 31°43' W 117°51'3 6.6
2018-Jul-20 19:00N 31°45' W 117°47'3 6.4
2018-Jul-20 18:31N 31°46' W 117°44'3 6.2
2018-Jul-20 18:01N 31°49' W 117°42'3 6.5
2018-Jul-20 17:31N 31°52' W 117°43'3 6.6
2018-Jul-20 17:01N 31°56' W 117°43'3 6.7
2018-Jul-20 16:30N 31°59' W 117°44'3 6.5
2018-Jul-20 16:00N 32°02' W 117°44'3259.1
2018-Jul-20 16:00N 32°00' W 117°42'612.1 260 / 121018.210.8 18.016.419.0
2018-Jul-20 15:30N 32°06' W 117°44'3 6.6
2018-Jul-20 15:01N 32°09' W 117°45'3 6.6
2018-Jul-20 14:31N 32°12' W 117°45'3 6.6
2018-Jul-20 14:00N 32°15' W 117°46'342515.2
2018-Jul-20 14:00N 31°42' W 117°42'3776.1 260 / 51018.210.8 18.016.420.0
2018-Jul-20 13:31N 32°19' W 117°46'3 6.6
2018-Jul-20 13:01N 32°22' W 117°47'3 6.6
2018-Jul-20 12:30N 32°25' W 117°47'3 6.6
2018-Jul-20 12:00N 32°28' W 117°47'3 6.6
2018-Jul-20 11:30N 32°32' W 117°48'4 7.0
2018-Jul-20 11:00N 32°35' W 117°50'4 7.9
2018-Jul-20 10:30N 32°39' W 117°51'4 7.9
2018-Jul-20 10:01N 32°43' W 117°51'3 6.7
2018-Jul-20 09:30N 32°46' W 117°54'3 6.8
2018-Jul-20 09:00N 32°49' W 117°55'3 6.8
2018-Jul-20 08:30N 32°52' W 117°55'3 6.8
2018-Jul-20 08:00N 32°55' W 117°56'3 6.8
2018-Jul-20 07:30N 32°59' W 117°58'3 6.9
2018-Jul-20 07:00N 33°02' W 117°59'4 7.0
2018-Jul-20 06:30N 33°05' W 118°00'3 6.9
2018-Jul-20 06:00N 33°08' W 118°02'3 6.9
2018-Jul-20 05:30N 33°12' W 118°03'4 7.9
2018-Jul-20 05:00N 33°15' W 118°04'5310.3
2018-Jul-20 05:00N 33°12' W 118°00'919.5 250 / 81016.210.8 22.014.023.0
2018-Jul-20 04:31N 33°20' W 118°06'5 9.1
2018-Jul-20 04:00N 33°24' W 118°08'5 9.0
2018-Jul-20 03:30N 33°28' W 118°10'4 9.0
2018-Jul-20 03:00N 33°32' W 118°12'4 8.9
2018-Jul-20 02:30N 33°37' W 118°13'4 8.2
2018-Jul-20 02:00N 33°41' W 118°12'4 8.0
2018-Jul-20 01:30N 33°45' W 118°11'0 0.8
2018-Jul-20 00:58N 33°45' W 118°11'0 0.0
2018-Jul-20 00:30N 33°45' W 118°11'0 0.0
2018-Jul-20 00:00N 33°45' W 118°11'0 0.0
2018-Jul-19 23:30N 33°45' W 118°11'0 0.0
2018-Jul-19 23:00N 33°45' W 118°11'0 0.0
2018-Jul-19 22:29N 33°45' W 118°11'0 0.0
2018-Jul-19 21:59N 33°45' W 118°11'0 0.0
2018-Jul-19 21:29N 33°45' W 118°11'0 0.0
2018-Jul-19 20:59N 33°45' W 118°11'0 0.0
2018-Jul-19 20:29N 33°45' W 118°11'0 0.0
2018-Jul-19 19:58N 33°45' W 118°11'0 0.0
2018-Jul-19 19:28N 33°45' W 118°11'0 0.0
2018-Jul-19 18:58N 33°45' W 118°11'0 0.0
2018-Jul-19 18:28N 33°45' W 118°11'0 0.0
2018-Jul-19 17:58N 33°45' W 118°11'0 0.0
2018-Jul-19 17:30N 33°45' W 118°11'0 0.0
2018-Jul-19 17:00N 33°45' W 118°11'0 0.0
2018-Jul-19 16:27N 33°45' W 118°11'0 0.0
2018-Jul-19 16:00N 33°45' W 118°11'0 0.0
2018-Jul-19 15:29N 33°45' W 118°11'0 0.0
2018-Jul-19 14:59N 33°45' W 118°11'0 0.0
2018-Jul-19 13:59N 33°45' W 118°11'0 0.0
2018-Jul-19 13:29N 33°45' W 118°11'0 0.0
2018-Jul-19 12:56N 33°45' W 118°11'0 0.6
2018-Jul-19 12:30N 33°45' W 118°11'3 6.3
2018-Jul-19 12:00N 33°42' W 118°11'4 8.6
2018-Jul-19 11:30N 33°38' W 118°10'4 8.5
2018-Jul-19 11:00N 33°33' W 118°09'4 8.3
2018-Jul-19 10:31N 33°30' W 118°07'4 8.3
2018-Jul-19 10:01N 33°26' W 118°05'4 7.8
2018-Jul-19 09:31N 33°22' W 118°04'4 7.9
2018-Jul-19 09:00N 33°18' W 118°02'4 7.6
2018-Jul-19 08:30N 33°15' W 118°01'4 7.7
2018-Jul-19 08:00N 33°12' W 117°58'4 7.4
2018-Jul-19 07:30N 33°09' W 117°55'3 6.5
2018-Jul-19 07:00N 33°06' W 117°56'4 7.0
2018-Jul-19 06:30N 33°02' W 117°54'4 7.0
2018-Jul-19 06:00N 32°59' W 117°52'4 7.1
2018-Jul-19 05:31N 32°56' W 117°50'4 7.1
2018-Jul-19 04:59N 32°52' W 117°50'3 7.1
2018-Jul-19 04:30N 32°49' W 117°49'4 7.2
2018-Jul-19 04:00N 32°46' W 117°48'4 7.3
2018-Jul-19 03:30N 32°42' W 117°48'4 7.3
2018-Jul-19 03:00N 32°38' W 117°47'5298.0
2018-Jul-19 03:00N 32°36' W 117°42'4 7.9 220 / 151019.210.8 16.012.719.0
2018-Jul-19 02:30N 32°35' W 117°46'4 7.2
2018-Jul-19 02:00N 32°31' W 117°46'4 7.1
2018-Jul-19 01:30N 32°28' W 117°46'4 7.2
2018-Jul-19 01:00N 32°24' W 117°45'3211.7
2018-Jul-19 01:00N 32°24' W 117°42'4 9.0 270 / 121016.210.8 20.016.920.0
2018-Jul-19 00:30N 32°21' W 117°45'4 7.1
2018-Jul-19 00:00N 32°17' W 117°45'3 7.0
2018-Jul-18 23:30N 32°14' W 117°45'4 7.0
2018-Jul-18 23:00N 32°10' W 117°44'4 7.4
2018-Jul-18 22:30N 32°06' W 117°44'712.8
2018-Jul-18 22:00N 32°00' W 117°42'3339.4 280 / 151019.327.0 21.018.020.0
2018-Jul-18 21:59N 32°02' W 117°44'3 7.3
2018-Jul-18 21:30N 31°59' W 117°43'4 7.4
2018-Jul-18 21:00N 31°55' W 117°43'4 7.2
2018-Jul-18 20:30N 31°52' W 117°43'4 7.1
2018-Jul-18 20:00N 31°48' W 117°43'3 6.8
2018-Jul-18 19:30N 31°46' W 117°46'4 7.1
2018-Jul-18 19:00N 31°44' W 117°49'4 7.1
2018-Jul-18 18:30N 31°42' W 117°53'4 7.8
2018-Jul-18 18:00N 31°40' W 117°57'5558.8
2018-Jul-18 18:00N 31°36' W 117°54'816.0 270 / 61019.210.8 18.014.819.0
2018-Jul-18 17:30N 31°42' W 117°60'4 7.2
2018-Jul-18 17:00N 31°44' W 118°03'4 7.3
2018-Jul-18 16:31N 31°47' W 118°06'4 7.3
2018-Jul-18 16:00N 31°49' W 118°09'3 6.8
2018-Jul-18 15:30N 31°47' W 118°13'4 7.7
2018-Jul-18 15:00N 31°44' W 118°15'4 7.1
2018-Jul-18 14:30N 31°40' W 118°15'7 6.7
2018-Jul-18 13:30N 31°34' W 118°14'3 6.2
2018-Jul-18 13:01N 31°32' W 118°11'2143.2
2018-Jul-18 13:00N 31°30' W 118°12'5 9.6 310 / 141019.210.8 18.0 16.0
2018-Jul-18 12:30N 31°32' W 118°07'3 6.9
2018-Jul-18 12:00N 31°32' W 118°03'4 6.9
2018-Jul-18 11:30N 31°32' W 117°59'7 6.8
2018-Jul-18 10:30N 31°36' W 117°52'4 7.0
2018-Jul-18 10:00N 31°38' W 117°49'3 6.8
2018-Jul-18 09:30N 31°40' W 117°46'3 6.7
2018-Jul-18 09:00N 31°41' W 117°42'7510.0
2018-Jul-18 09:00N 31°36' W 117°36'612.2 320 / 131019.327.0 18.014.820.2
2018-Jul-18 08:30N 31°42' W 117°38'4 7.0
2018-Jul-18 08:00N 31°43' W 117°34'3 6.9
2018-Jul-18 07:30N 31°44' W 117°30'3 6.6
2018-Jul-18 07:00N 31°45' W 117°27'3 6.9
2018-Jul-18 06:30N 31°46' W 117°23'4 7.2
2018-Jul-18 06:00N 31°47' W 117°19'4 7.3
2018-Jul-18 05:23N 31°48' W 117°14'1712.1
2018-Jul-18 04:00N 31°48' W 116°54'8 0.5 250 / 151019.210.8 16.012.718.0
2018-Jul-17 12:09N 31°55' W 116°57'2 9.6
2018-Jul-17 11:55N 31°56' W 116°60'4 9.5
2018-Jul-17 11:30N 31°57' W 117°04'5 9.5
2018-Jul-17 11:00N 31°59' W 117°09'6 9.7
2018-Jul-17 10:26N 32°01' W 117°15'4 9.5
2018-Jul-17 10:00N 32°03' W 117°19'5 9.3
2018-Jul-17 09:30N 32°05' W 117°24'5 9.4
2018-Jul-17 09:00N 32°08' W 117°29'5 9.2
2018-Jul-17 08:30N 32°12' W 117°31'5 9.5
2018-Jul-17 08:01N 32°15' W 117°35'5304.9
2018-Jul-17 08:00N 32°12' W 117°30'1020.2 300 / 121018.210.8 19.015.920.0
2018-Jul-17 07:30N 32°19' W 117°39'4 8.9
2018-Jul-17 07:00N 32°22' W 117°42'5 9.8
2018-Jul-17 06:30N 32°27' W 117°44'5 9.7
2018-Jul-17 06:01N 32°31' W 117°46'5 9.8
2018-Jul-17 05:30N 32°36' W 117°47'5 9.4
2018-Jul-17 05:00N 32°41' W 117°48'5 9.4
2018-Jul-17 04:31N 32°45' W 117°49'5 9.4
2018-Jul-17 04:00N 32°50' W 117°50'5 9.2
2018-Jul-17 03:30N 32°55' W 117°51'5 9.4
2018-Jul-17 03:00N 32°58' W 117°54'7486.5
2018-Jul-17 03:00N 32°54' W 117°48'1123.7 270 / 121016.210.8 16.012.718.0
2018-Jul-17 02:30N 33°02' W 117°58'5 9.6
2018-Jul-17 02:00N 33°05' W 118°02'5 9.7
2018-Jul-17 01:30N 33°09' W 118°06'5 9.6
2018-Jul-17 01:00N 33°13' W 118°09'5 9.3
2018-Jul-17 00:29N 33°17' W 118°13'7 6.3
2018-Jul-16 23:25N 33°21' W 118°19'0 0.1
2018-Jul-16 22:58N 33°21' W 118°19'0 0.1
2018-Jul-16 22:28N 33°21' W 118°19'0 0.0
2018-Jul-16 22:00N 33°21' W 118°19'0 0.0
2018-Jul-16 21:30N 33°21' W 118°19'0 0.0
2018-Jul-16 21:00N 33°21' W 118°19'0 0.1
2018-Jul-16 20:30N 33°21' W 118°19'0 0.1
2018-Jul-16 20:00N 33°21' W 118°19'0 0.0
2018-Jul-16 19:29N 33°21' W 118°19'0 0.0
2018-Jul-16 18:59N 33°21' W 118°19'0 0.0
2018-Jul-16 18:29N 33°21' W 118°19'0 0.0
2018-Jul-16 17:59N 33°21' W 118°19'0 0.0
2018-Jul-16 17:29N 33°21' W 118°19'0 0.0
2018-Jul-16 16:58N 33°21' W 118°19'0 0.0
2018-Jul-16 16:28N 33°21' W 118°19'0 0.0
2018-Jul-16 15:58N 33°21' W 118°19'0 0.1
2018-Jul-16 15:28N 33°21' W 118°19'0 0.0
2018-Jul-16 15:00N 33°21' W 118°19'0 0.1
2018-Jul-16 14:27N 33°21' W 118°19'0 0.2
2018-Jul-16 14:00N 33°21' W 118°19'3 6.3
2018-Jul-16 13:31N 33°18' W 118°17'4 8.3
2018-Jul-16 13:00N 33°14' W 118°17'3 6.5
2018-Jul-16 12:30N 33°11' W 118°17'3 6.5
2018-Jul-16 12:00N 33°08' W 118°17'3 6.3
2018-Jul-16 11:30N 33°05' W 118°16'3 6.8
2018-Jul-16 11:00N 33°02' W 118°13'3 7.0
2018-Jul-16 10:31N 32°60' W 118°10'3 6.8
2018-Jul-16 10:00N 32°58' W 118°07'4247.0
2018-Jul-16 10:00N 32°54' W 118°06'2 5.0 280 / 51018.210.8 22.019.022.5
2018-Jul-16 09:30N 32°55' W 118°04'3 7.0
2018-Jul-16 09:00N 32°53' W 118°00'3 6.6
2018-Jul-16 08:29N 32°53' W 117°56'3 6.6
2018-Jul-16 08:00N 32°56' W 117°56'4 7.2
2018-Jul-16 07:30N 32°59' W 117°57'4 7.3
2018-Jul-16 07:00N 33°03' W 117°59'4 7.3
2018-Jul-16 06:30N 33°06' W 118°00'4 7.0
2018-Jul-16 06:00N 33°09' W 118°02'3 6.9
2018-Jul-16 05:30N 33°13' W 118°03'4 7.8
2018-Jul-16 05:00N 33°16' W 118°05'4 8.7
2018-Jul-16 04:30N 33°20' W 118°07'4 8.8
2018-Jul-16 04:00N 33°24' W 118°09'4 8.4
2018-Jul-16 03:30N 33°28' W 118°10'4 8.8
2018-Jul-16 03:00N 33°32' W 118°12'10678.0
2018-Jul-16 03:00N 33°24' W 118°06'1428.7 230 / 151019.210.8 16.012.719.0
2018-Jul-16 02:30N 33°37' W 118°13'4 8.5
2018-Jul-16 02:00N 33°41' W 118°11'4 7.9
2018-Jul-16 01:30N 33°45' W 118°11'0 0.8
2018-Jul-16 01:00N 33°45' W 118°11'0 0.0
2018-Jul-16 00:30N 33°45' W 118°11'0 0.0
2018-Jul-15 23:59N 33°45' W 118°11'0 0.0
2018-Jul-15 23:29N 33°45' W 118°11'0 0.0
2018-Jul-15 22:59N 33°45' W 118°11'0 0.0
2018-Jul-15 22:29N 33°45' W 118°11'0 0.0
2018-Jul-15 21:59N 33°45' W 118°11'0 0.0
2018-Jul-15 21:28N 33°45' W 118°11'0 0.0
2018-Jul-15 20:58N 33°45' W 118°11'0 0.0
2018-Jul-15 20:28N 33°45' W 118°11'0 0.0
2018-Jul-15 19:58N 33°45' W 118°11'0 0.0
2018-Jul-15 19:30N 33°45' W 118°11'0 0.0
2018-Jul-15 19:00N 33°45' W 118°11'5443.8
2018-Jul-15 19:00N 33°42' W 118°06'510.8 190 / 91018.227.0 22.017.521.0
2018-Jul-15 18:30N 33°45' W 118°11'0 0.0
2018-Jul-15 18:00N 33°45' W 118°11'0 0.0
2018-Jul-15 17:30N 33°45' W 118°11'0 0.0
2018-Jul-15 16:59N 33°45' W 118°11'0 0.0
2018-Jul-15 16:29N 33°45' W 118°11'0 0.0
2018-Jul-15 15:59N 33°45' W 118°11'0 0.0
2018-Jul-15 15:29N 33°45' W 118°11'0 0.0
2018-Jul-15 14:58N 33°45' W 118°11'0 0.0
2018-Jul-15 14:25N 33°45' W 118°11'0 0.0
2018-Jul-15 13:58N 33°45' W 118°11'0 0.0
2018-Jul-15 13:28N 33°45' W 118°11'0 0.0
2018-Jul-15 12:58N 33°45' W 118°11'0 0.5
2018-Jul-15 12:31N 33°45' W 118°11'4 7.8
2018-Jul-15 12:00N 33°41' W 118°11'510.1
2018-Jul-15 11:30N 33°36' W 118°10'611.4
2018-Jul-15 11:00N 33°30' W 118°08'611.6
2018-Jul-15 10:30N 33°25' W 118°05'611.4
2018-Jul-15 10:00N 33°20' W 118°03'611.6
2018-Jul-15 09:30N 33°14' W 118°00'611.5
2018-Jul-15 09:00N 33°09' W 117°58'611.4
2018-Jul-15 08:30N 33°04' W 117°56'611.8
2018-Jul-15 08:00N 32°58' W 117°53'815.4
2018-Jul-15 07:30N 32°51' W 117°49'815.5
2018-Jul-15 07:00N 32°44' W 117°46'815.0
2018-Jul-15 06:30N 32°37' W 117°46'815.6
2018-Jul-15 06:00N 32°29' W 117°43'815.5
2018-Jul-15 05:30N 32°23' W 117°38'815.8
2018-Jul-15 05:00N 32°17' W 117°32'815.3
2018-Jul-15 04:30N 32°11' W 117°25'815.4
2018-Jul-15 04:00N 32°07' W 117°18'815.2
2018-Jul-15 03:29N 32°02' W 117°10'915.2
2018-Jul-15 02:52N 31°58' W 117°01'514.8
2018-Jul-15 02:30N 31°55' W 116°55'5 0.3
2018-Jul-14 11:28N 31°51' W 116°58'3 7.3
2018-Jul-14 11:00N 31°50' W 117°02'4 7.1
2018-Jul-14 10:23N 31°48' W 117°07'3 7.0
2018-Jul-14 09:56N 31°47' W 117°10'3 7.0
2018-Jul-14 09:28N 31°45' W 117°14'3 7.0
2018-Jul-14 09:00N 31°44' W 117°17'4 6.8
2018-Jul-14 08:24N 31°42' W 117°21'3 7.1
2018-Jul-14 08:00N 31°42' W 117°18'52186.9 310 / 141019.227.0 19.015.920.0
2018-Jul-14 07:59N 31°41' W 117°24'3 6.6
2018-Jul-14 07:30N 31°41' W 117°28'3 6.7
2018-Jul-14 06:59N 31°41' W 117°32'3 5.9
2018-Jul-14 06:30N 31°39' W 117°34'3 6.4
2018-Jul-14 06:00N 31°35' W 117°34'3 6.4
2018-Jul-14 05:28N 31°32' W 117°34'3 6.0
2018-Jul-14 05:00N 31°30' W 117°37'3 6.5
2018-Jul-14 04:30N 31°32' W 117°41'3 6.4
2018-Jul-14 04:00N 31°33' W 117°44'81237.0
2018-Jul-14 04:00N 31°30' W 117°36'1122.0 300 / 71019.310.8 16.012.720.0
2018-Jul-14 03:30N 31°34' W 117°47'3 6.2
2018-Jul-14 02:57N 31°35' W 117°51'3 6.3
2018-Jul-14 02:30N 31°35' W 117°55'3 6.6
2018-Jul-14 02:00N 31°35' W 117°59'4 6.8
2018-Jul-14 01:29N 31°34' W 118°03'3 6.8
2018-Jul-14 01:00N 31°34' W 118°06'3 6.6
2018-Jul-14 00:30N 31°34' W 118°10'4 7.2
2018-Jul-14 00:00N 31°34' W 118°15'3 6.4
2018-Jul-13 23:30N 31°37' W 118°15'3 6.7
2018-Jul-13 23:00N 31°40' W 118°15'11942.4
2018-Jul-13 23:00N 31°30' W 118°12'1327.3 310 / 131019.210.8 20.0 17.0
2018-Jul-13 22:30N 31°43' W 118°13'3 6.3
2018-Jul-13 22:00N 31°45' W 118°10'3 6.6
2018-Jul-13 21:30N 31°45' W 118°07'3 6.7
2018-Jul-13 21:01N 31°45' W 118°03'4 7.1
2018-Jul-13 20:30N 31°43' W 117°59'3 6.4
2018-Jul-13 20:01N 31°42' W 117°55'176.3
2018-Jul-13 20:00N 31°42' W 117°54'2 4.7 300 / 101020.227.0 20.015.320.0
2018-Jul-13 19:30N 31°44' W 117°52'3 6.6
2018-Jul-13 19:00N 31°46' W 117°50'3 6.7
2018-Jul-13 18:30N 31°49' W 117°47'3 6.7
2018-Jul-13 18:00N 31°51' W 117°45'3 6.4
2018-Jul-13 17:31N 31°54' W 117°43'4 7.1
2018-Jul-13 17:00N 31°58' W 117°43'3 6.9
2018-Jul-13 16:30N 32°01' W 117°44'3 6.8
2018-Jul-13 16:01N 32°05' W 117°44'2144.1
2018-Jul-13 16:00N 32°06' W 117°42'3 6.6 280 / 101019.210.8 16.012.718.0
2018-Jul-13 15:31N 32°08' W 117°45'4 7.0
2018-Jul-13 15:00N 32°12' W 117°46'365842.4
2018-Jul-13 15:00N 31°36' W 117°42'4242.9 290 / 151019.210.8 20.0 18.0
2018-Jul-13 14:00N 32°18' W 117°47'3 6.3
2018-Jul-13 13:31N 32°21' W 117°47'3 6.5
2018-Jul-13 13:01N 32°24' W 117°47'3 6.4
2018-Jul-13 12:31N 32°28' W 117°48'3 6.5
2018-Jul-13 12:00N 32°31' W 117°48'3 6.7
2018-Jul-13 11:30N 32°34' W 117°49'3 6.5
2018-Jul-13 11:01N 32°37' W 117°50'3 6.6
2018-Jul-13 10:30N 32°41' W 117°50'3 6.6
2018-Jul-13 10:01N 32°44' W 117°51'3 6.9
2018-Jul-13 09:31N 32°47' W 117°53'3 6.5
2018-Jul-13 09:01N 32°50' W 117°54'3 6.7
2018-Jul-13 08:30N 32°53' W 117°55'4 7.9
2018-Jul-13 08:00N 32°57' W 117°57'3 7.0
2018-Jul-13 07:30N 33°00' W 117°58'3 6.8
2018-Jul-13 07:01N 33°04' W 117°60'3 6.9
2018-Jul-13 06:31N 33°07' W 118°01'4 7.3
2018-Jul-13 06:00N 33°10' W 118°02'3 7.1
2018-Jul-13 05:31N 33°14' W 118°04'4 7.9
2018-Jul-13 05:01N 33°17' W 118°05'4 8.1
2018-Jul-13 04:31N 33°21' W 118°07'4 8.4
2018-Jul-13 04:00N 33°25' W 118°09'4 8.4
2018-Jul-13 03:30N 33°29' W 118°11'4 8.4
2018-Jul-13 03:00N 33°33' W 118°12'4 8.2
2018-Jul-13 02:30N 33°37' W 118°13'4 8.2
2018-Jul-13 02:00N 33°41' W 118°12'4 7.9
2018-Jul-13 01:31N 33°45' W 118°11'0 0.4
2018-Jul-13 00:58N 33°45' W 118°11'0 0.0
2018-Jul-13 00:28N 33°45' W 118°11'0 0.0
2018-Jul-13 00:00N 33°45' W 118°11'0 0.0
2018-Jul-12 23:30N 33°45' W 118°11'0 0.0
2018-Jul-12 23:00N 33°45' W 118°11'0 0.0
2018-Jul-12 22:30N 33°45' W 118°11'0 0.0
2018-Jul-12 22:00N 33°45' W 118°11'0 0.0
2018-Jul-12 21:29N 33°45' W 118°11'0 0.0
2018-Jul-12 20:56N 33°45' W 118°11'0 0.0
2018-Jul-12 20:29N 33°45' W 118°11'0 0.0
2018-Jul-12 19:59N 33°45' W 118°11'0 0.0
2018-Jul-12 19:28N 33°45' W 118°11'0 0.0
2018-Jul-12 18:58N 33°45' W 118°11'0 0.0
2018-Jul-12 18:28N 33°45' W 118°11'0 0.0
2018-Jul-12 17:58N 33°45' W 118°11'0 0.0
2018-Jul-12 17:28N 33°45' W 118°11'0 0.0
2018-Jul-12 17:00N 33°45' W 118°11'0 0.0
2018-Jul-12 16:30N 33°45' W 118°11'0 0.0
2018-Jul-12 16:00N 33°45' W 118°11'0 0.0
2018-Jul-12 15:30N 33°45' W 118°11'0 0.0
2018-Jul-12 15:00N 33°45' W 118°11'0 0.0
2018-Jul-12 14:26N 33°45' W 118°11'0 0.0
2018-Jul-12 13:59N 33°45' W 118°11'0 0.0
2018-Jul-12 13:29N 33°45' W 118°11'0 0.0
2018-Jul-12 12:59N 33°45' W 118°11'0 0.6
2018-Jul-12 12:31N 33°45' W 118°11'4 7.2
2018-Jul-12 12:00N 33°41' W 118°11'4 7.9
2018-Jul-12 11:30N 33°37' W 118°10'4 7.4
2018-Jul-12 11:00N 33°34' W 118°09'4 7.5
2018-Jul-12 10:30N 33°30' W 118°07'4 7.4
2018-Jul-12 10:00N 33°27' W 118°06'4 7.2
2018-Jul-12 09:30N 33°23' W 118°04'4 7.2
2018-Jul-12 09:00N 33°20' W 118°03'4 7.1
2018-Jul-12 08:30N 33°17' W 118°01'4 7.1
2018-Jul-12 08:00N 33°13' W 117°59'3 7.0
2018-Jul-12 07:30N 33°10' W 117°58'  
Track history (hours):
 
Tides and Currents Weather Stations Pressure Air Temp Water Temp Dewpoint Dewpoint Depression Visibility Wind Speed Wind Dir Waves Ship Positions

Imagination

Operator: Carnival Cruise Lines

Last reported at 2018-Jul-22 07:00 UTC. Time now 2018-Jul-22 07:05 UTC.
Position N 32°44' W 117°48'.

Type: Ship. MMSI: 309933000.

Date/timePositionNaut miles runAvg speedWind from/ knotsBaromVisibWave heightAir tempDewpointWater temp
2018-Jul-22 07:00N 32°44' W 117°48'815.5
2018-Jul-22 06:30N 32°36' W 117°46'815.7
2018-Jul-22 06:00N 32°29' W 117°42'815.5
2018-Jul-22 05:30N 32°22' W 117°37'815.6
2018-Jul-22 05:00N 32°16' W 117°32'8675.7
2018-Jul-22 05:00N 32°12' W 117°24'2 3.5 320 / 121019.310.8 16.012.721.0
2018-Jul-22 04:30N 32°11' W 117°25'815.6
2018-Jul-22 03:59N 32°05' W 117°19'815.1
2018-Jul-22 03:29N 32°00' W 117°12'815.1
2018-Jul-22 02:59N 31°58' W 117°03'715.4
2018-Jul-22 02:30N 31°55' W 116°55'815.4
2018-Jul-22 02:00N 31°52' W 116°47'5 0.4
2018-Jul-21 12:06N 31°52' W 116°53'4 7.5
2018-Jul-21 11:37N 31°51' W 116°57'3 7.4
2018-Jul-21 11:14N 31°50' W 117°00'2 6.8
2018-Jul-21 11:00N 31°50' W 117°02'4 7.0
2018-Jul-21 10:29N 31°49' W 117°06'4 7.0
2018-Jul-21 09:58N 31°48' W 117°10'3 7.0
2018-Jul-21 09:30N 31°47' W 117°14'3 7.0
2018-Jul-21 09:01N 31°46' W 117°18'3808228472.6
2018-Jul-21 09:00S 31°42' W 117°18'38077831.4 310 / 131018.210.8 19.015.920.7
2018-Jul-21 08:30N 31°45' W 117°22'3 6.8
2018-Jul-21 08:01N 31°44' W 117°26'3 6.8
2018-Jul-21 07:31N 31°42' W 117°29'3 6.9
2018-Jul-21 07:00N 31°41' W 117°33'3 6.4
2018-Jul-21 06:31N 31°38' W 117°34'3 6.5
2018-Jul-21 06:00N 31°34' W 117°35'3 6.5
2018-Jul-21 05:30N 31°31' W 117°36'3 5.9
2018-Jul-21 05:01N 31°31' W 117°39'3 6.5
2018-Jul-21 04:30N 31°32' W 117°43'3 6.5
2018-Jul-21 04:01N 31°33' W 117°46'3 6.7
2018-Jul-21 03:31N 31°33' W 117°50'3 6.7
2018-Jul-21 03:01N 31°33' W 117°54'6354.7
2018-Jul-21 03:00N 31°30' W 117°48'917.7 290 / 151018.210.8 16.012.719.0
2018-Jul-21 02:30N 31°32' W 117°58'3 6.4
2018-Jul-21 02:01N 31°32' W 118°02'3 6.6
2018-Jul-21 01:30N 31°32' W 118°05'3 6.4
2018-Jul-21 01:00N 31°32' W 118°09'3 6.7
2018-Jul-21 00:30N 31°32' W 118°13'3 6.6
2018-Jul-21 00:01N 31°35' W 118°15'3 6.6
2018-Jul-20 23:31N 31°38' W 118°14'3 6.6
2018-Jul-20 23:01N 31°41' W 118°13'3 6.7
2018-Jul-20 22:30N 31°44' W 118°13'3 6.2
2018-Jul-20 22:00N 31°45' W 118°09'4 7.1
2018-Jul-20 21:30N 31°43' W 118°05'4 7.1
2018-Jul-20 21:00N 31°42' W 118°02'3 6.7
2018-Jul-20 20:31N 31°41' W 117°58'3 6.6
2018-Jul-20 20:00N 31°42' W 117°54'6423.2
2018-Jul-20 20:00N 31°36' W 117°54'816.3 260 / 61018.2 20.016.920.0
2018-Jul-20 19:31N 31°43' W 117°51'3 6.6
2018-Jul-20 19:00N 31°45' W 117°47'3 6.4
2018-Jul-20 18:31N 31°46' W 117°44'3 6.2
2018-Jul-20 18:01N 31°49' W 117°42'3 6.5
2018-Jul-20 17:31N 31°52' W 117°43'3 6.6
2018-Jul-20 17:01N 31°56' W 117°43'3 6.7
2018-Jul-20 16:30N 31°59' W 117°44'3 6.5
2018-Jul-20 16:00N 32°02' W 117°44'3259.1
2018-Jul-20 16:00N 32°00' W 117°42'612.1 260 / 121018.210.8 18.016.419.0
2018-Jul-20 15:30N 32°06' W 117°44'3 6.6
2018-Jul-20 15:01N 32°09' W 117°45'3 6.6
2018-Jul-20 14:31N 32°12' W 117°45'3 6.6
2018-Jul-20 14:00N 32°15' W 117°46'342515.2
2018-Jul-20 14:00N 31°42' W 117°42'3776.1 260 / 51018.210.8 18.016.420.0
2018-Jul-20 13:31N 32°19' W 117°46'3 6.6
2018-Jul-20 13:01N 32°22' W 117°47'3 6.6
2018-Jul-20 12:30N 32°25' W 117°47'3 6.6
2018-Jul-20 12:00N 32°28' W 117°47'3 6.6
2018-Jul-20 11:30N 32°32' W 117°48'4 7.0
2018-Jul-20 11:00N 32°35' W 117°50'4 7.9
2018-Jul-20 10:30N 32°39' W 117°51'4 7.9
2018-Jul-20 10:01N 32°43' W 117°51'3 6.7
2018-Jul-20 09:30N 32°46' W 117°54'3 6.8
2018-Jul-20 09:00N 32°49' W 117°55'3 6.8
2018-Jul-20 08:30N 32°52' W 117°55'3 6.8
2018-Jul-20 08:00N 32°55' W 117°56'3 6.8
2018-Jul-20 07:30N 32°59' W 117°58'3 6.9
2018-Jul-20 07:00N 33°02' W 117°59'4 7.0
2018-Jul-20 06:30N 33°05' W 118°00'3 6.9
2018-Jul-20 06:00N 33°08' W 118°02'3 6.9
2018-Jul-20 05:30N 33°12' W 118°03'4 7.9
2018-Jul-20 05:00N 33°15' W 118°04'5310.3
2018-Jul-20 05:00N 33°12' W 118°00'919.5 250 / 81016.210.8 22.014.023.0
2018-Jul-20 04:31N 33°20' W 118°06'5 9.1
2018-Jul-20 04:00N 33°24' W 118°08'5 9.0
2018-Jul-20 03:30N 33°28' W 118°10'4 9.0
2018-Jul-20 03:00N 33°32' W 118°12'4 8.9
2018-Jul-20 02:30N 33°37' W 118°13'4 8.2
2018-Jul-20 02:00N 33°41' W 118°12'4 8.0
2018-Jul-20 01:30N 33°45' W 118°11'0 0.8
2018-Jul-20 00:58N 33°45' W 118°11'0 0.0
2018-Jul-20 00:30N 33°45' W 118°11'0 0.0
2018-Jul-20 00:00N 33°45' W 118°11'0 0.0
2018-Jul-19 23:30N 33°45' W 118°11'0 0.0
2018-Jul-19 23:00N 33°45' W 118°11'0 0.0
2018-Jul-19 22:29N 33°45' W 118°11'0 0.0
2018-Jul-19 21:59N 33°45' W 118°11'0 0.0
2018-Jul-19 21:29N 33°45' W 118°11'0 0.0
2018-Jul-19 20:59N 33°45' W 118°11'0 0.0
2018-Jul-19 20:29N 33°45' W 118°11'0 0.0
2018-Jul-19 19:58N 33°45' W 118°11'0 0.0
2018-Jul-19 19:28N 33°45' W 118°11'0 0.0
2018-Jul-19 18:58N 33°45' W 118°11'0 0.0
2018-Jul-19 18:28N 33°45' W 118°11'0 0.0
2018-Jul-19 17:58N 33°45' W 118°11'0 0.0
2018-Jul-19 17:30N 33°45' W 118°11'0 0.0
2018-Jul-19 17:00N 33°45' W 118°11'0 0.0
2018-Jul-19 16:27N 33°45' W 118°11'0 0.0
2018-Jul-19 16:00N 33°45' W 118°11'0 0.0
2018-Jul-19 15:29N 33°45' W 118°11'0 0.0
2018-Jul-19 14:59N 33°45' W 118°11'0 0.0
2018-Jul-19 13:59N 33°45' W 118°11'0 0.0
2018-Jul-19 13:29N 33°45' W 118°11'0 0.0
2018-Jul-19 12:56N 33°45' W 118°11'0 0.6
2018-Jul-19 12:30N 33°45' W 118°11'3 6.3
2018-Jul-19 12:00N 33°42' W 118°11'4 8.6
2018-Jul-19 11:30N 33°38' W 118°10'4 8.5
2018-Jul-19 11:00N 33°33' W 118°09'4 8.3
2018-Jul-19 10:31N 33°30' W 118°07'4 8.3
2018-Jul-19 10:01N 33°26' W 118°05'4 7.8
2018-Jul-19 09:31N 33°22' W 118°04'4 7.9
2018-Jul-19 09:00N 33°18' W 118°02'4 7.6
2018-Jul-19 08:30N 33°15' W 118°01'4 7.7
2018-Jul-19 08:00N 33°12' W 117°58'4 7.4
2018-Jul-19 07:30N 33°09' W 117°55'3 6.5
2018-Jul-19 07:00N 33°06' W 117°56'4 7.0
2018-Jul-19 06:30N 33°02' W 117°54'4 7.0
2018-Jul-19 06:00N 32°59' W 117°52'4 7.1
2018-Jul-19 05:31N 32°56' W 117°50'4 7.1
2018-Jul-19 04:59N 32°52' W 117°50'3 7.1
2018-Jul-19 04:30N 32°49' W 117°49'4 7.2
2018-Jul-19 04:00N 32°46' W 117°48'4 7.3
2018-Jul-19 03:30N 32°42' W 117°48'4 7.3
2018-Jul-19 03:00N 32°38' W 117°47'5298.0
2018-Jul-19 03:00N 32°36' W 117°42'4 7.9 220 / 151019.210.8 16.012.719.0
2018-Jul-19 02:30N 32°35' W 117°46'4 7.2
2018-Jul-19 02:00N 32°31' W 117°46'4 7.1
2018-Jul-19 01:30N 32°28' W 117°46'4 7.2
2018-Jul-19 01:00N 32°24' W 117°45'3211.7
2018-Jul-19 01:00N 32°24' W 117°42'4 9.0 270 / 121016.210.8 20.016.920.0
2018-Jul-19 00:30N 32°21' W 117°45'4 7.1
2018-Jul-19 00:00N 32°17' W 117°45'3 7.0
2018-Jul-18 23:30N 32°14' W 117°45'4 7.0
2018-Jul-18 23:00N 32°10' W 117°44'4 7.4
2018-Jul-18 22:30N 32°06' W 117°44'712.8
2018-Jul-18 22:00N 32°00' W 117°42'3339.4 280 / 151019.327.0 21.018.020.0
2018-Jul-18 21:59N 32°02' W 117°44'3 7.3
2018-Jul-18 21:30N 31°59' W 117°43'4 7.4
2018-Jul-18 21:00N 31°55' W 117°43'4 7.2
2018-Jul-18 20:30N 31°52' W 117°43'4 7.1
2018-Jul-18 20:00N 31°48' W 117°43'3 6.8
2018-Jul-18 19:30N 31°46' W 117°46'4 7.1
2018-Jul-18 19:00N 31°44' W 117°49'4 7.1
2018-Jul-18 18:30N 31°42' W 117°53'4 7.8
2018-Jul-18 18:00N 31°40' W 117°57'5558.8
2018-Jul-18 18:00N 31°36' W 117°54'816.0 270 / 61019.210.8 18.014.819.0
2018-Jul-18 17:30N 31°42' W 117°60'4 7.2
2018-Jul-18 17:00N 31°44' W 118°03'4 7.3
2018-Jul-18 16:31N 31°47' W 118°06'4 7.3
2018-Jul-18 16:00N 31°49' W 118°09'3 6.8
2018-Jul-18 15:30N 31°47' W 118°13'4 7.7
2018-Jul-18 15:00N 31°44' W 118°15'4 7.1
2018-Jul-18 14:30N 31°40' W 118°15'7 6.7
2018-Jul-18 13:30N 31°34' W 118°14'3 6.2
2018-Jul-18 13:01N 31°32' W 118°11'2143.2
2018-Jul-18 13:00N 31°30' W 118°12'5 9.6 310 / 141019.210.8 18.0 16.0
2018-Jul-18 12:30N 31°32' W 118°07'3 6.9
2018-Jul-18 12:00N 31°32' W 118°03'4 6.9
2018-Jul-18 11:30N 31°32' W 117°59'7 6.8
2018-Jul-18 10:30N 31°36' W 117°52'4 7.0
2018-Jul-18 10:00N 31°38' W 117°49'3 6.8
2018-Jul-18 09:30N 31°40' W 117°46'3 6.7
2018-Jul-18 09:00N 31°41' W 117°42'7510.0
2018-Jul-18 09:00N 31°36' W 117°36'612.2 320 / 131019.327.0 18.014.820.2
2018-Jul-18 08:30N 31°42' W 117°38'4 7.0
2018-Jul-18 08:00N 31°43' W 117°34'3 6.9
2018-Jul-18 07:30N 31°44' W 117°30'3 6.6
2018-Jul-18 07:00N 31°45' W 117°27'3 6.9
2018-Jul-18 06:30N 31°46' W 117°23'4 7.2
2018-Jul-18 06:00N 31°47' W 117°19'4 7.3
2018-Jul-18 05:23N 31°48' W 117°14'1712.1
2018-Jul-18 04:00N 31°48' W 116°54'8 0.5 250 / 151019.210.8 16.012.718.0
2018-Jul-17 12:09N 31°55' W 116°57'2 9.6
2018-Jul-17 11:55N 31°56' W 116°60'4 9.5
2018-Jul-17 11:30N 31°57' W 117°04'5 9.5
2018-Jul-17 11:00N 31°59' W 117°09'6 9.7
2018-Jul-17 10:26N 32°01' W 117°15'4 9.5
2018-Jul-17 10:00N 32°03' W 117°19'5 9.3
2018-Jul-17 09:30N 32°05' W 117°24'5 9.4
2018-Jul-17 09:00N 32°08' W 117°29'5 9.2
2018-Jul-17 08:30N 32°12' W 117°31'5 9.5
2018-Jul-17 08:01N 32°15' W 117°35'5304.9
2018-Jul-17 08:00N 32°12' W 117°30'1020.2 300 / 121018.210.8 19.015.920.0
2018-Jul-17 07:30N 32°19' W 117°39'4 8.9
2018-Jul-17 07:00N 32°22' W 117°42'5 9.8
2018-Jul-17 06:30N 32°27' W 117°44'5 9.7
2018-Jul-17 06:01N 32°31' W 117°46'5 9.8
2018-Jul-17 05:30N 32°36' W 117°47'5 9.4
2018-Jul-17 05:00N 32°41' W 117°48'5 9.4
2018-Jul-17 04:31N 32°45' W 117°49'5 9.4
2018-Jul-17 04:00N 32°50' W 117°50'5 9.2
2018-Jul-17 03:30N 32°55' W 117°51'5 9.4
2018-Jul-17 03:00N 32°58' W 117°54'7486.5
2018-Jul-17 03:00N 32°54' W 117°48'1123.7 270 / 121016.210.8 16.012.718.0
2018-Jul-17 02:30N 33°02' W 117°58'5 9.6
2018-Jul-17 02:00N 33°05' W 118°02'5 9.7
2018-Jul-17 01:30N 33°09' W 118°06'5 9.6
2018-Jul-17 01:00N 33°13' W 118°09'5 9.3
2018-Jul-17 00:29N 33°17' W 118°13'7 6.3
2018-Jul-16 23:25N 33°21' W 118°19'0 0.1
2018-Jul-16 22:58N 33°21' W 118°19'0 0.1
2018-Jul-16 22:28N 33°21' W 118°19'0 0.0
2018-Jul-16 22:00N 33°21' W 118°19'0 0.0
2018-Jul-16 21:30N 33°21' W 118°19'0 0.0
2018-Jul-16 21:00N 33°21' W 118°19'0 0.1
2018-Jul-16 20:30N 33°21' W 118°19'0 0.1
2018-Jul-16 20:00N 33°21' W 118°19'0 0.0
2018-Jul-16 19:29N 33°21' W 118°19'0 0.0
2018-Jul-16 18:59N 33°21' W 118°19'0 0.0
2018-Jul-16 18:29N 33°21' W 118°19'0 0.0
2018-Jul-16 17:59N 33°21' W 118°19'0 0.0
2018-Jul-16 17:29N 33°21' W 118°19'0 0.0
2018-Jul-16 16:58N 33°21' W 118°19'0 0.0
2018-Jul-16 16:28N 33°21' W 118°19'0 0.0
2018-Jul-16 15:58N 33°21' W 118°19'0 0.1
2018-Jul-16 15:28N 33°21' W 118°19'0 0.0
2018-Jul-16 15:00N 33°21' W 118°19'0 0.1
2018-Jul-16 14:27N 33°21' W 118°19'0 0.2
2018-Jul-16 14:00N 33°21' W 118°19'3 6.3
2018-Jul-16 13:31N 33°18' W 118°17'4 8.3
2018-Jul-16 13:00N 33°14' W 118°17'3 6.5
2018-Jul-16 12:30N 33°11' W 118°17'3 6.5
2018-Jul-16 12:00N 33°08' W 118°17'3 6.3
2018-Jul-16 11:30N 33°05' W 118°16'3 6.8
2018-Jul-16 11:00N 33°02' W 118°13'3 7.0
2018-Jul-16 10:31N 32°60' W 118°10'3 6.8
2018-Jul-16 10:00N 32°58' W 118°07'4247.0
2018-Jul-16 10:00N 32°54' W 118°06'2 5.0 280 / 51018.210.8 22.019.022.5
2018-Jul-16 09:30N 32°55' W 118°04'3 7.0
2018-Jul-16 09:00N 32°53' W 118°00'3 6.6
2018-Jul-16 08:29N 32°53' W 117°56'3 6.6
2018-Jul-16 08:00N 32°56' W 117°56'4 7.2
2018-Jul-16 07:30N 32°59' W 117°57'4 7.3
2018-Jul-16 07:00N 33°03' W 117°59'4 7.3
2018-Jul-16 06:30N 33°06' W 118°00'4 7.0
2018-Jul-16 06:00N 33°09' W 118°02'3 6.9
2018-Jul-16 05:30N 33°13' W 118°03'4 7.8
2018-Jul-16 05:00N 33°16' W 118°05'4 8.7
2018-Jul-16 04:30N 33°20' W 118°07'4 8.8
2018-Jul-16 04:00N 33°24' W 118°09'4 8.4
2018-Jul-16 03:30N 33°28' W 118°10'4 8.8
2018-Jul-16 03:00N 33°32' W 118°12'10678.0
2018-Jul-16 03:00N 33°24' W 118°06'1428.7 230 / 151019.210.8 16.012.719.0
2018-Jul-16 02:30N 33°37' W 118°13'4 8.5
2018-Jul-16 02:00N 33°41' W 118°11'4 7.9
2018-Jul-16 01:30N 33°45' W 118°11'0 0.8
2018-Jul-16 01:00N 33°45' W 118°11'0 0.0
2018-Jul-16 00:30N 33°45' W 118°11'0 0.0
2018-Jul-15 23:59N 33°45' W 118°11'0 0.0
2018-Jul-15 23:29N 33°45' W 118°11'0 0.0
2018-Jul-15 22:59N 33°45' W 118°11'0 0.0
2018-Jul-15 22:29N 33°45' W 118°11'0 0.0
2018-Jul-15 21:59N 33°45' W 118°11'0 0.0
2018-Jul-15 21:28N 33°45' W 118°11'0 0.0
2018-Jul-15 20:58N 33°45' W 118°11'0 0.0
2018-Jul-15 20:28N 33°45' W 118°11'0 0.0
2018-Jul-15 19:58N 33°45' W 118°11'0 0.0
2018-Jul-15 19:30N 33°45' W 118°11'0 0.0
2018-Jul-15 19:00N 33°45' W 118°11'5443.8
2018-Jul-15 19:00N 33°42' W 118°06'510.8 190 / 91018.227.0 22.017.521.0
2018-Jul-15 18:30N 33°45' W 118°11'0 0.0
2018-Jul-15 18:00N 33°45' W 118°11'0 0.0
2018-Jul-15 17:30N 33°45' W 118°11'0 0.0
2018-Jul-15 16:59N 33°45' W 118°11'0 0.0
2018-Jul-15 16:29N 33°45' W 118°11'0 0.0
2018-Jul-15 15:59N 33°45' W 118°11'0 0.0
2018-Jul-15 15:29N 33°45' W 118°11'0 0.0
2018-Jul-15 14:58N 33°45' W 118°11'0 0.0
2018-Jul-15 14:25N 33°45' W 118°11'0 0.0
2018-Jul-15 13:58N 33°45' W 118°11'0 0.0
2018-Jul-15 13:28N 33°45' W 118°11'0 0.0
2018-Jul-15 12:58N 33°45' W 118°11'0 0.5
2018-Jul-15 12:31N 33°45' W 118°11'4 7.8
2018-Jul-15 12:00N 33°41' W 118°11'510.1
2018-Jul-15 11:30N 33°36' W 118°10'611.4
2018-Jul-15 11:00N 33°30' W 118°08'611.6
2018-Jul-15 10:30N 33°25' W 118°05'611.4
2018-Jul-15 10:00N 33°20' W 118°03'611.6
2018-Jul-15 09:30N 33°14' W 118°00'611.5
2018-Jul-15 09:00N 33°09' W 117°58'611.4
2018-Jul-15 08:30N 33°04' W 117°56'611.8
2018-Jul-15 08:00N 32°58' W 117°53'815.4
2018-Jul-15 07:30N 32°51' W 117°49'815.5
2018-Jul-15 07:00N 32°44' W 117°46'815.0
2018-Jul-15 06:30N 32°37' W 117°46'815.6
2018-Jul-15 06:00N 32°29' W 117°43'815.5
2018-Jul-15 05:30N 32°23' W 117°38'815.8
2018-Jul-15 05:00N 32°17' W 117°32'815.3
2018-Jul-15 04:30N 32°11' W 117°25'815.4
2018-Jul-15 04:00N 32°07' W 117°18'815.2
2018-Jul-15 03:29N 32°02' W 117°10'915.2
2018-Jul-15 02:52N 31°58' W 117°01'514.8
2018-Jul-15 02:30N 31°55' W 116°55'5 0.3
2018-Jul-14 11:28N 31°51' W 116°58'3 7.3
2018-Jul-14 11:00N 31°50' W 117°02'4 7.1
2018-Jul-14 10:23N 31°48' W 117°07'3 7.0
2018-Jul-14 09:56N 31°47' W 117°10'3 7.0
2018-Jul-14 09:28N 31°45' W 117°14'3 7.0
2018-Jul-14 09:00N 31°44' W 117°17'4 6.8
2018-Jul-14 08:24N 31°42' W 117°21'3 7.1
2018-Jul-14 08:00N 31°42' W 117°18'52186.9 310 / 141019.227.0 19.015.920.0
2018-Jul-14 07:59N 31°41' W 117°24'3 6.6
2018-Jul-14 07:30N 31°41' W 117°28'3 6.7
2018-Jul-14 06:59N 31°41' W 117°32'3 5.9
2018-Jul-14 06:30N 31°39' W 117°34'3 6.4
2018-Jul-14 06:00N 31°35' W 117°34'3 6.4
2018-Jul-14 05:28N 31°32' W 117°34'3 6.0
2018-Jul-14 05:00N 31°30' W 117°37'3 6.5
2018-Jul-14 04:30N 31°32' W 117°41'3 6.4
2018-Jul-14 04:00N 31°33' W 117°44'81237.0
2018-Jul-14 04:00N 31°30' W 117°36'1122.0 300 / 71019.310.8 16.012.720.0
2018-Jul-14 03:30N 31°34' W 117°47'3 6.2
2018-Jul-14 02:57N 31°35' W 117°51'3 6.3
2018-Jul-14 02:30N 31°35' W 117°55'3 6.6
2018-Jul-14 02:00N 31°35' W 117°59'4 6.8
2018-Jul-14 01:29N 31°34' W 118°03'3 6.8
2018-Jul-14 01:00N 31°34' W 118°06'3 6.6
2018-Jul-14 00:30N 31°34' W 118°10'4 7.2
2018-Jul-14 00:00N 31°34' W 118°15'3 6.4
2018-Jul-13 23:30N 31°37' W 118°15'3 6.7
2018-Jul-13 23:00N 31°40' W 118°15'11942.4
2018-Jul-13 23:00N 31°30' W 118°12'1327.3 310 / 131019.210.8 20.0 17.0
2018-Jul-13 22:30N 31°43' W 118°13'3 6.3
2018-Jul-13 22:00N 31°45' W 118°10'3 6.6
2018-Jul-13 21:30N 31°45' W 118°07'3 6.7
2018-Jul-13 21:01N 31°45' W 118°03'4 7.1
2018-Jul-13 20:30N 31°43' W 117°59'3 6.4
2018-Jul-13 20:01N 31°42' W 117°55'176.3
2018-Jul-13 20:00N 31°42' W 117°54'2 4.7 300 / 101020.227.0 20.015.320.0
2018-Jul-13 19:30N 31°44' W 117°52'3 6.6
2018-Jul-13 19:00N 31°46' W 117°50'3 6.7
2018-Jul-13 18:30N 31°49' W 117°47'3 6.7
2018-Jul-13 18:00N 31°51' W 117°45'3 6.4
2018-Jul-13 17:31N 31°54' W 117°43'4 7.1
2018-Jul-13 17:00N 31°58' W 117°43'3 6.9
2018-Jul-13 16:30N 32°01' W 117°44'3 6.8
2018-Jul-13 16:01N 32°05' W 117°44'2144.1
2018-Jul-13 16:00N 32°06' W 117°42'3 6.6 280 / 101019.210.8 16.012.718.0
2018-Jul-13 15:31N 32°08' W 117°45'4 7.0
2018-Jul-13 15:00N 32°12' W 117°46'365842.4
2018-Jul-13 15:00N 31°36' W 117°42'4242.9 290 / 151019.210.8 20.0 18.0
2018-Jul-13 14:00N 32°18' W 117°47'3 6.3
2018-Jul-13 13:31N 32°21' W 117°47'3 6.5
2018-Jul-13 13:01N 32°24' W 117°47'3 6.4
2018-Jul-13 12:31N 32°28' W 117°48'3 6.5
2018-Jul-13 12:00N 32°31' W 117°48'3 6.7
2018-Jul-13 11:30N 32°34' W 117°49'3 6.5
2018-Jul-13 11:01N 32°37' W 117°50'3 6.6
2018-Jul-13 10:30N 32°41' W 117°50'3 6.6
2018-Jul-13 10:01N 32°44' W 117°51'3 6.9
2018-Jul-13 09:31N 32°47' W 117°53'3 6.5
2018-Jul-13 09:01N 32°50' W 117°54'3 6.7
2018-Jul-13 08:30N 32°53' W 117°55'4 7.9
2018-Jul-13 08:00N 32°57' W 117°57'3 7.0
2018-Jul-13 07:30N 33°00' W 117°58'3 6.8
2018-Jul-13 07:01N 33°04' W 117°60'3 6.9
2018-Jul-13 06:31N 33°07' W 118°01'4 7.3
2018-Jul-13 06:00N 33°10' W 118°02'3 7.1
2018-Jul-13 05:31N 33°14' W 118°04'4 7.9
2018-Jul-13 05:01N 33°17' W 118°05'4 8.1
2018-Jul-13 04:31N 33°21' W 118°07'4 8.4
2018-Jul-13 04:00N 33°25' W 118°09'4 8.4
2018-Jul-13 03:30N 33°29' W 118°11'4 8.4
2018-Jul-13 03:00N 33°33' W 118°12'4 8.2
2018-Jul-13 02:30N 33°37' W 118°13'4 8.2
2018-Jul-13 02:00N 33°41' W 118°12'4 7.9
2018-Jul-13 01:31N 33°45' W 118°11'0 0.4
2018-Jul-13 00:58N 33°45' W 118°11'0 0.0
2018-Jul-13 00:28N 33°45' W 118°11'0 0.0
2018-Jul-13 00:00N 33°45' W 118°11'0 0.0
2018-Jul-12 23:30N 33°45' W 118°11'0 0.0
2018-Jul-12 23:00N 33°45' W 118°11'0 0.0
2018-Jul-12 22:30N 33°45' W 118°11'0 0.0
2018-Jul-12 22:00N 33°45' W 118°11'0 0.0
2018-Jul-12 21:29N 33°45' W 118°11'0 0.0
2018-Jul-12 20:56N 33°45' W 118°11'0 0.0
2018-Jul-12 20:29N 33°45' W 118°11'0 0.0
2018-Jul-12 19:59N 33°45' W 118°11'0 0.0
2018-Jul-12 19:28N 33°45' W 118°11'0 0.0
2018-Jul-12 18:58N 33°45' W 118°11'0 0.0
2018-Jul-12 18:28N 33°45' W 118°11'0 0.0
2018-Jul-12 17:58N 33°45' W 118°11'0 0.0
2018-Jul-12 17:28N 33°45' W 118°11'0 0.0
2018-Jul-12 17:00N 33°45' W 118°11'0 0.0
2018-Jul-12 16:30N 33°45' W 118°11'0 0.0
2018-Jul-12 16:00N 33°45' W 118°11'0 0.0
2018-Jul-12 15:30N 33°45' W 118°11'0 0.0
2018-Jul-12 15:00N 33°45' W 118°11'0 0.0
2018-Jul-12 14:26N 33°45' W 118°11'0 0.0
2018-Jul-12 13:59N 33°45' W 118°11'0 0.0
2018-Jul-12 13:29N 33°45' W 118°11'0 0.0
2018-Jul-12 12:59N 33°45' W 118°11'0 0.6
2018-Jul-12 12:31N 33°45' W 118°11'4 7.2
2018-Jul-12 12:00N 33°41' W 118°11'4 7.9
2018-Jul-12 11:30N 33°37' W 118°10'4 7.4
2018-Jul-12 11:00N 33°34' W 118°09'4 7.5
2018-Jul-12 10:30N 33°30' W 118°07'4 7.4
2018-Jul-12 10:00N 33°27' W 118°06'4 7.2
2018-Jul-12 09:30N 33°23' W 118°04'4 7.2
2018-Jul-12 09:00N 33°20' W 118°03'4 7.1
2018-Jul-12 08:30N 33°17' W 118°01'4 7.1
2018-Jul-12 08:00N 33°13' W 117°59'3 7.0
2018-Jul-12 07:30N 33°10' W 117°58'  

Dump ship's entire track history